Kezdőlap
METAR-TAF:

METAR-TAF

Repülőterek :

Boone Municipal Airport

Boone, Iowa, Amerikai Egyesült Államok

földrajzi szélesség: 42-03N, földrajzi hosszúság: 093-51W, magasság: 354 m

Jelenlegi meteorológiai megfigyelések

A jelentés 23 perccel ezelõtt készült, 07:15 UTC
Délkeleti szél 19 kt széllökések: 27 kt
Hőmérséklet 13°C
Páratartalom 100%
Légköri nyomás 997 hPa
Látótávolság: 16.1 km
Szakadozott felhőzet 900 lábon
Borult 1400 lábon

METAR: KBNW 220715Z AUTO 14019G27KT 10SM BKN009 OVC014 13/13 A2945 RMK AO2

Idő: 02:38 (07:38 UTC)


TAF: hiányzik

Meteorológiai megfigyelések és előrejelzések több, mint 4000 repülőtéren (METAR és TAF jelentéseket).

A térképen piros és sárga pontok jelzik az elérhető meteorológiai állomásokat.

Mozgassa az egeret a pont fölött, hogy megjelenjen az állomás neve.

Azután kattintson az időjárási megfigyelések és előrejelzések megtekintéséhez.

A térkép megváltoztatása: kattintson a fekete keresztel jelölt zöld gombra ráközelítéshez, a vonallal jelölt zöld gombra távolításhoz, vagy a zöld nyilakra a szomszédos térképek eléréséhez.


METAR-TAF: